createdAt,value
2018-02-21T00:00:46.349Z,48.97
2018-02-21T00:01:46.286Z,49.16
2018-02-21T00:02:46.224Z,48.97
2018-02-21T00:03:46.164Z,49.07
2018-02-21T00:04:46.100Z,49.07
2018-02-21T00:05:46.038Z,49.16
2018-02-21T00:06:45.976Z,49.16
2018-02-21T00:07:45.914Z,48.88
2018-02-21T00:08:45.850Z,48.97
2018-02-21T00:09:45.791Z,48.88
2018-02-21T00:10:45.729Z,49.07
2018-02-21T00:11:45.665Z,48.97
2018-02-21T00:12:45.603Z,48.97
2018-02-21T00:13:45.541Z,49.07
2018-02-21T00:14:45.477Z,49.26
2018-02-21T00:15:45.419Z,49.26
2018-02-21T00:16:45.354Z,49.26
2018-02-21T00:17:45.288Z,49.26
2018-02-21T00:18:45.235Z,49.16
2018-02-21T00:19:45.167Z,49.16
2018-02-21T00:20:45.101Z,48.68
2018-02-21T00:21:45.051Z,49.16
2018-02-21T00:22:44.981Z,48.78
2018-02-21T00:23:44.916Z,49.07
2018-02-21T00:24:44.858Z,48.78
2018-02-21T00:25:44.795Z,48.88
2018-02-21T00:26:44.730Z,49.35
2018-02-21T00:27:44.674Z,49.35
2018-02-21T00:28:44.609Z,49.23
2018-02-21T00:29:44.543Z,49.33
2018-02-21T00:30:44.484Z,49.43
2018-02-21T00:31:44.425Z,49.64
2018-02-21T00:32:44.371Z,49.62
2018-02-21T00:33:44.296Z,49.35
2018-02-21T00:34:44.240Z,49.33
2018-02-21T00:35:44.178Z,49.33
2018-02-21T00:36:44.108Z,49.52
2018-02-21T00:37:44.051Z,49.45
2018-02-21T00:38:43.988Z,49.62
2018-02-21T00:39:43.923Z,49.55
2018-02-21T00:40:43.862Z,49.45
2018-02-21T00:41:43.801Z,49.64
2018-02-21T00:42:43.738Z,49.35
2018-02-21T00:43:43.677Z,49.26
2018-02-21T00:44:43.614Z,48.78
2018-02-21T00:45:43.551Z,49.16
2018-02-21T00:46:43.490Z,49.26
2018-02-21T00:47:43.427Z,49.45
2018-02-21T00:48:43.366Z,49.62
2018-02-21T00:49:43.305Z,49.62
2018-02-21T00:50:43.244Z,49.35
2018-02-21T00:51:43.178Z,49.43
2018-02-21T00:52:43.117Z,49.64
2018-02-21T00:53:43.053Z,49.45
2018-02-21T00:54:42.992Z,49.64
2018-02-21T00:55:42.931Z,49.43
2018-02-21T00:56:42.868Z,49.45
2018-02-21T00:57:42.805Z,49.64
2018-02-21T00:58:42.746Z,49.55
2018-02-21T00:59:42.682Z,49.35
2018-02-21T01:00:42.625Z,49.26
2018-02-21T01:01:42.559Z,48.78
2018-02-21T01:02:42.495Z,48.78
2018-02-21T01:03:42.434Z,48.97
2018-02-21T01:04:42.370Z,49.26
2018-02-21T01:05:42.314Z,49.55
2018-02-21T01:06:42.245Z,49.62
2018-02-21T01:07:42.180Z,49.62
2018-02-21T01:08:42.124Z,49.35
2018-02-21T01:09:42.058Z,48.78
2018-02-21T01:10:41.993Z,49.04
2018-02-21T01:11:41.937Z,48.97
2018-02-21T01:12:41.876Z,49.16
2018-02-21T01:13:41.807Z,49.26
2018-02-21T01:14:41.747Z,48.95
2018-02-21T01:15:41.696Z,48.88
2018-02-21T01:16:41.621Z,49.07
2018-02-21T01:17:41.562Z,48.97
2018-02-21T01:18:41.500Z,49.26
2018-02-21T01:19:41.437Z,48.97
2018-02-21T01:20:41.373Z,48.97
2018-02-21T01:21:41.321Z,48.68
2018-02-21T01:22:41.251Z,48.97
2018-02-21T01:23:41.190Z,49.16
2018-02-21T01:24:41.126Z,49.07
2018-02-21T01:25:41.064Z,48.88
2018-02-21T01:26:41.003Z,48.88
2018-02-21T01:27:40.940Z,49.04
2018-02-21T01:28:40.881Z,49.14
2018-02-21T01:29:40.815Z,49.33
2018-02-21T01:30:40.754Z,49.45
2018-02-21T01:31:40.691Z,49.35
2018-02-21T01:32:40.628Z,49.07
2018-02-21T01:33:40.566Z,49.16
2018-02-21T01:34:40.503Z,49.16
2018-02-21T01:35:40.442Z,48.88
2018-02-21T01:36:40.383Z,49.14
2018-02-21T01:37:40.316Z,48.78
2018-02-21T01:38:40.258Z,49.16
2018-02-21T01:39:40.192Z,49.23
2018-02-21T01:40:40.132Z,49.33
2018-02-21T01:41:40.072Z,49.62
2018-02-21T01:42:40.007Z,49.45
2018-02-21T01:43:39.947Z,49.43
2018-02-21T01:44:39.881Z,49.64
2018-02-21T01:45:39.820Z,49.45
2018-02-21T01:46:39.758Z,49.43
2018-02-21T01:47:39.702Z,49.33
2018-02-21T01:48:39.637Z,49.55
2018-02-21T01:49:39.571Z,49.62
2018-02-21T01:50:39.512Z,49.43
2018-02-21T01:51:39.455Z,49.45
2018-02-21T01:52:39.389Z,49.71
2018-02-21T01:53:39.324Z,49.52
2018-02-21T01:54:39.259Z,49.71
2018-02-21T01:55:39.203Z,49.43
2018-02-21T01:56:39.130Z,49.43
2018-02-21T01:57:39.072Z,49.43
2018-02-21T01:58:39.014Z,49.71
2018-02-21T01:59:38.947Z,49.71
2018-02-21T02:00:38.885Z,49.62
2018-02-21T02:01:38.831Z,49.43
2018-02-21T02:02:38.763Z,49.43
2018-02-21T02:03:38.701Z,49.43
2018-02-21T02:04:38.637Z,49.64
2018-02-21T02:05:38.574Z,49.33
2018-02-21T02:06:38.516Z,49.62
2018-02-21T02:07:38.450Z,49.43
2018-02-21T02:08:38.389Z,49.33
2018-02-21T02:09:38.328Z,49.35
2018-02-21T02:10:38.265Z,49.43
2018-02-21T02:11:38.202Z,49.33
2018-02-21T02:12:38.140Z,49.62
2018-02-21T02:13:38.077Z,49.43
2018-02-21T02:14:38.015Z,49.62
2018-02-21T02:15:37.953Z,49.62
2018-02-21T02:16:37.890Z,49.71
2018-02-21T02:17:37.828Z,49.71
2018-02-21T02:18:37.767Z,49.52
2018-02-21T02:19:37.705Z,49.62
2018-02-21T02:20:37.641Z,49.52
2018-02-21T02:21:37.581Z,49.52
2018-02-21T02:22:37.518Z,49.43
2018-02-21T02:23:37.458Z,49.43
2018-02-21T02:24:37.398Z,49.62
2018-02-21T02:25:37.333Z,49.62
2018-02-21T02:26:37.269Z,49.52
2018-02-21T02:27:37.215Z,49.43
2018-02-21T02:28:37.144Z,49.62
2018-02-21T02:29:37.083Z,49.52
2018-02-21T02:30:37.020Z,49.71
2018-02-21T02:31:36.964Z,49.71
2018-02-21T02:32:36.898Z,49.52
2018-02-21T02:33:36.830Z,49.52
2018-02-21T02:34:36.772Z,49.62
2018-02-21T02:35:36.711Z,49.14
2018-02-21T02:36:36.647Z,49.80
2018-02-21T02:37:36.586Z,49.80
2018-02-21T02:38:36.527Z,49.52
2018-02-21T02:39:36.456Z,49.52
2018-02-21T02:40:36.399Z,49.90
2018-02-21T02:41:36.335Z,49.80
2018-02-21T02:42:36.272Z,49.62
2018-02-21T02:43:36.210Z,49.43
2018-02-21T02:44:36.152Z,49.90
2018-02-21T02:45:36.086Z,49.71
2018-02-21T02:46:36.026Z,50.00
2018-02-21T02:47:35.961Z,49.33
2018-02-21T02:48:35.898Z,49.33
2018-02-21T02:49:35.837Z,49.90
2018-02-21T02:50:35.777Z,49.62
2018-02-21T02:51:35.715Z,49.52
2018-02-21T02:52:35.650Z,49.43
2018-02-21T02:53:35.590Z,49.52
2018-02-21T02:54:35.528Z,49.62
2018-02-21T02:55:35.464Z,49.43
2018-02-21T02:56:35.402Z,49.71
2018-02-21T02:57:35.337Z,49.43
2018-02-21T02:58:35.277Z,49.33
2018-02-21T02:59:35.220Z,49.80
2018-02-21T03:00:35.152Z,49.33
2018-02-21T03:01:35.095Z,49.23
2018-02-21T03:02:35.028Z,49.52
2018-02-21T03:03:34.971Z,49.52
2018-02-21T03:04:34.909Z,49.71
2018-02-21T03:05:34.844Z,49.62
2018-02-21T03:06:34.787Z,49.33
2018-02-21T03:07:34.761Z,49.90
2018-02-21T03:08:34.654Z,49.80
2018-02-21T03:09:34.591Z,49.43
2018-02-21T03:10:34.529Z,49.52
2018-02-21T03:11:34.475Z,49.90
2018-02-21T03:12:34.410Z,49.52
2018-02-21T03:13:34.339Z,49.43
2018-02-21T03:14:34.280Z,49.62
2018-02-21T03:15:34.229Z,49.80
2018-02-21T03:16:34.187Z,49.80
2018-02-21T03:17:34.092Z,50.00
2018-02-21T03:18:34.037Z,50.00
2018-02-21T03:19:33.967Z,49.71
2018-02-21T03:20:33.905Z,49.80
2018-02-21T03:21:33.845Z,49.52
2018-02-21T03:22:33.784Z,49.33
2018-02-21T03:23:33.719Z,49.62
2018-02-21T03:24:33.656Z,49.33
2018-02-21T03:25:33.597Z,49.80
2018-02-21T03:26:33.532Z,49.52
2018-02-21T03:27:33.471Z,49.33
2018-02-21T03:28:33.407Z,49.62
2018-02-21T03:29:33.348Z,49.33
2018-02-21T03:30:33.285Z,49.52
2018-02-21T03:31:33.222Z,49.71
2018-02-21T03:32:33.158Z,49.71
2018-02-21T03:33:33.097Z,49.43
2018-02-21T03:34:33.030Z,49.71
2018-02-21T03:35:32.973Z,49.52
2018-02-21T03:36:32.916Z,49.43
2018-02-21T03:37:32.850Z,49.33
2018-02-21T03:38:32.787Z,49.90
2018-02-21T03:39:32.724Z,49.90
2018-02-21T03:40:32.659Z,49.33
2018-02-21T03:41:32.603Z,49.33
2018-02-21T03:42:32.537Z,49.90
2018-02-21T03:43:32.476Z,49.80
2018-02-21T03:44:32.406Z,49.90
2018-02-21T03:45:32.352Z,49.90
2018-02-21T03:46:32.286Z,49.90
2018-02-21T03:47:32.221Z,49.90
2018-02-21T03:48:32.167Z,49.80
2018-02-21T03:49:32.103Z,49.52
2018-02-21T03:50:32.032Z,49.33
2018-02-21T03:51:31.976Z,49.23
2018-02-21T03:52:31.917Z,49.23
2018-02-21T03:53:31.849Z,49.80
2018-02-21T03:54:31.788Z,49.43
2018-02-21T03:55:31.725Z,49.43
2018-02-21T03:56:31.661Z,49.52
2018-02-21T03:57:31.600Z,49.80
2018-02-21T03:58:31.548Z,49.90
2018-02-21T03:59:31.475Z,49.71
2018-02-21T04:00:31.413Z,49.90
2018-02-21T04:01:31.351Z,49.71
2018-02-21T04:02:31.289Z,50.00
2018-02-21T04:03:31.228Z,50.00
2018-02-21T04:04:31.167Z,50.00
2018-02-21T04:05:31.102Z,50.19
2018-02-21T04:06:31.040Z,50.19
2018-02-21T04:07:30.979Z,50.00
2018-02-21T04:08:30.917Z,49.80
2018-02-21T04:09:30.854Z,49.52
2018-02-21T04:10:30.793Z,49.52
2018-02-21T04:11:30.730Z,49.52
2018-02-21T04:12:30.667Z,49.62
2018-02-21T04:13:30.604Z,49.52
2018-02-21T04:14:30.542Z,49.43
2018-02-21T04:15:30.482Z,49.62
2018-02-21T04:16:30.417Z,49.43
2018-02-21T04:17:30.356Z,49.71
2018-02-21T04:18:30.349Z,49.71
2018-02-21T04:19:30.230Z,49.14
2018-02-21T04:20:30.163Z,49.33
2018-02-21T04:21:30.104Z,49.80
2018-02-21T04:22:30.046Z,49.80
2018-02-21T04:23:29.979Z,49.90
2018-02-21T04:24:29.914Z,49.80
2018-02-21T04:25:29.856Z,49.52
2018-02-21T04:26:29.799Z,49.52
2018-02-21T04:27:29.728Z,49.90
2018-02-21T04:28:29.669Z,49.62
2018-02-21T04:29:29.611Z,49.71
2018-02-21T04:30:29.542Z,49.52
2018-02-21T04:31:29.483Z,49.90
2018-02-21T04:32:29.424Z,50.00
2018-02-21T04:33:29.355Z,49.71
2018-02-21T04:34:29.293Z,50.19
2018-02-21T04:35:29.233Z,50.00
2018-02-21T04:36:29.170Z,49.62
2018-02-21T04:37:29.107Z,49.80
2018-02-21T04:38:29.045Z,49.80
2018-02-21T04:39:28.981Z,49.33
2018-02-21T04:40:28.920Z,49.43
2018-02-21T04:41:28.854Z,49.80
2018-02-21T04:42:28.795Z,49.62
2018-02-21T04:43:28.734Z,49.52
2018-02-21T04:44:28.670Z,49.52
2018-02-21T04:45:28.608Z,49.43
2018-02-21T04:46:28.546Z,49.43
2018-02-21T04:47:28.484Z,49.43
2018-02-21T04:48:28.420Z,50.00
2018-02-21T04:49:28.361Z,50.09
2018-02-21T04:50:28.296Z,49.71
2018-02-21T04:51:28.242Z,49.52
2018-02-21T04:52:28.178Z,49.43
2018-02-21T04:53:28.109Z,49.43
2018-02-21T04:54:28.047Z,49.90
2018-02-21T04:55:27.982Z,49.43
2018-02-21T04:56:27.926Z,49.33
2018-02-21T04:57:27.857Z,49.52
2018-02-21T04:58:27.792Z,49.43
2018-02-21T04:59:27.741Z,49.62
2018-02-21T05:00:27.673Z,49.71
2018-02-21T05:01:27.608Z,49.62
2018-02-21T05:02:27.549Z,49.62
2018-02-21T05:03:27.487Z,49.80
2018-02-21T05:04:27.421Z,49.80
2018-02-21T05:05:27.359Z,49.71
2018-02-21T05:06:27.314Z,49.33
2018-02-21T05:07:27.234Z,49.52
2018-02-21T05:08:27.173Z,49.52
2018-02-21T05:09:27.112Z,49.62
2018-02-21T05:10:27.046Z,49.90
2018-02-21T05:11:26.986Z,49.80
2018-02-21T05:12:26.922Z,49.90
2018-02-21T05:13:26.860Z,49.62
2018-02-21T05:14:26.799Z,49.71
2018-02-21T05:15:26.738Z,49.52
2018-02-21T05:16:26.672Z,49.71
2018-02-21T05:17:26.611Z,49.62
2018-02-21T05:18:26.550Z,49.62
2018-02-21T05:19:26.487Z,49.90
2018-02-21T05:20:26.425Z,49.90
2018-02-21T05:21:26.371Z,49.80
2018-02-21T05:22:26.297Z,49.80
2018-02-21T05:23:26.239Z,50.00
2018-02-21T05:24:26.177Z,49.62
2018-02-21T05:25:26.112Z,50.00
2018-02-21T05:26:26.049Z,50.19
2018-02-21T05:27:25.991Z,49.98
2018-02-21T05:28:25.933Z,50.19
2018-02-21T05:29:25.862Z,49.98
2018-02-21T05:30:25.798Z,49.88
2018-02-21T05:31:25.742Z,49.88
2018-02-21T05:32:25.669Z,49.90
2018-02-21T05:33:25.612Z,50.00
2018-02-21T05:34:25.552Z,49.88
2018-02-21T05:35:25.485Z,50.07
2018-02-21T05:36:25.424Z,50.29
2018-02-21T05:37:25.375Z,49.88
2018-02-21T05:38:25.298Z,50.07
2018-02-21T05:39:25.237Z,49.98
2018-02-21T05:40:25.228Z,50.07
2018-02-21T05:41:25.111Z,50.26
2018-02-21T05:42:25.053Z,50.26
2018-02-21T05:43:24.988Z,49.88
2018-02-21T05:44:24.924Z,50.26
2018-02-21T05:45:24.862Z,50.26
2018-02-21T05:46:24.805Z,49.90
2018-02-21T05:47:24.738Z,49.88
2018-02-21T05:48:24.672Z,49.69
2018-02-21T05:49:24.611Z,50.26
2018-02-21T05:50:24.550Z,50.26
2018-02-21T05:51:24.489Z,50.45
2018-02-21T05:52:24.425Z,50.07
2018-02-21T05:53:24.364Z,50.16
2018-02-21T05:54:24.310Z,50.16
2018-02-21T05:55:24.241Z,49.88
2018-02-21T05:56:24.174Z,49.69
2018-02-21T05:57:24.108Z,50.16
2018-02-21T05:58:24.054Z,50.19
2018-02-21T05:59:23.990Z,50.19
2018-02-21T06:00:23.924Z,48.78
2018-02-21T06:01:23.862Z,47.85
2018-02-21T06:02:23.799Z,45.40
2018-02-21T06:03:23.736Z,43.24
2018-02-21T06:04:23.676Z,40.96
2018-02-21T06:05:23.618Z,38.51
2018-02-21T06:06:23.548Z,36.83
2018-02-21T06:07:23.490Z,33.50
2018-02-21T06:08:23.436Z,31.70
2018-02-21T06:09:23.364Z,29.82
2018-02-21T06:10:23.306Z,28.00
2018-02-21T06:11:23.265Z,26.29
2018-02-21T06:12:23.211Z,25.44
2018-02-21T06:13:23.140Z,24.10
2018-02-21T06:14:23.065Z,23.82
2018-02-21T06:15:23.161Z,22.96
2018-02-21T06:16:22.948Z,22.58
2018-02-21T06:17:22.889Z,21.53
2018-02-21T06:18:22.831Z,20.67
2018-02-21T06:19:22.771Z,20.58
2018-02-21T06:20:22.713Z,19.81
2018-02-21T06:21:22.650Z,19.43
2018-02-21T06:22:22.593Z,19.24
2018-02-21T06:23:22.539Z,18.57
2018-02-21T06:24:22.480Z,18.37
2018-02-21T06:25:22.429Z,17.80
2018-02-21T06:26:22.367Z,17.50
2018-02-21T06:27:22.312Z,17.32
2018-02-21T06:28:22.253Z,17.23
2018-02-21T06:29:22.203Z,16.94
2018-02-21T06:30:22.149Z,16.84
2018-02-21T06:31:22.085Z,16.84
2018-02-21T06:32:22.038Z,16.46
2018-02-21T06:33:21.974Z,16.85
2018-02-21T06:34:21.918Z,16.36
2018-02-21T06:35:21.863Z,16.27
2018-02-21T06:36:21.807Z,16.17
2018-02-21T06:37:21.753Z,15.98
2018-02-21T06:38:21.698Z,16.08
2018-02-21T06:39:21.643Z,15.98
2018-02-21T06:40:21.589Z,15.69
2018-02-21T06:41:21.533Z,15.41
2018-02-21T06:42:21.479Z,15.21
2018-02-21T06:43:21.426Z,15.22
2018-02-21T06:44:21.370Z,15.02
2018-02-21T06:45:21.317Z,14.92
2018-02-21T06:46:21.261Z,15.02
2018-02-21T06:47:21.222Z,14.83
2018-02-21T06:48:21.154Z,14.64
2018-02-21T06:49:21.102Z,14.73
2018-02-21T06:50:21.046Z,14.64
2018-02-21T06:51:20.993Z,14.64
2018-02-21T06:52:20.939Z,14.73
2018-02-21T06:53:20.885Z,14.45
2018-02-21T06:54:20.834Z,14.16
2018-02-21T06:55:20.778Z,14.55
2018-02-21T06:56:20.719Z,14.45
2018-02-21T06:57:20.670Z,14.16
2018-02-21T06:58:20.618Z,14.36
2018-02-21T06:59:20.565Z,14.26
2018-02-21T07:00:20.509Z,13.96
2018-02-21T07:01:20.457Z,14.26
2018-02-21T07:02:20.415Z,14.07
2018-02-21T07:03:20.351Z,13.78
2018-02-21T07:04:20.319Z,13.78
2018-02-21T07:05:20.243Z,13.97
2018-02-21T07:06:20.192Z,13.78
2018-02-21T07:07:20.138Z,13.78
2018-02-21T07:08:20.083Z,13.97
2018-02-21T07:09:20.031Z,14.07
2018-02-21T07:10:19.979Z,13.97
2018-02-21T07:11:19.927Z,13.97
2018-02-21T07:12:19.873Z,13.98
2018-02-21T07:13:19.820Z,13.68
2018-02-21T07:14:19.767Z,13.98
2018-02-21T07:15:19.778Z,13.98
2018-02-21T07:16:19.662Z,13.88
2018-02-21T07:17:19.613Z,13.88
2018-02-21T07:18:19.559Z,13.98
2018-02-21T07:19:19.505Z,14.07
2018-02-21T07:20:19.451Z,14.07
2018-02-21T07:21:19.398Z,13.98
2018-02-21T07:22:19.346Z,13.98
2018-02-21T07:23:19.293Z,13.59
2018-02-21T07:24:19.244Z,13.68
2018-02-21T07:25:19.183Z,13.59
2018-02-21T07:26:19.135Z,13.39
2018-02-21T07:27:19.083Z,13.59
2018-02-21T07:28:19.030Z,13.30
2018-02-21T07:29:18.978Z,13.40
2018-02-21T07:30:18.927Z,13.49
2018-02-21T07:31:18.876Z,13.01
2018-02-21T07:32:18.816Z,13.20
2018-02-21T07:33:18.768Z,13.30
2018-02-21T07:34:18.715Z,13.31
2018-02-21T07:35:18.664Z,13.40
2018-02-21T07:36:18.621Z,13.31
2018-02-21T07:37:18.566Z,13.60
2018-02-21T07:38:18.509Z,13.11
2018-02-21T07:39:18.453Z,13.21
2018-02-21T07:40:18.408Z,13.31
2018-02-21T07:41:18.351Z,13.02
2018-02-21T07:42:18.299Z,12.53
2018-02-21T07:43:18.252Z,12.63
2018-02-21T07:44:18.189Z,12.63
2018-02-21T07:45:18.142Z,12.63
2018-02-21T07:46:18.089Z,12.34
2018-02-21T07:47:18.037Z,12.54
2018-02-21T07:48:17.985Z,12.53
2018-02-21T07:49:17.931Z,12.54
2018-02-21T07:50:17.888Z,12.43
2018-02-21T07:51:17.830Z,12.73
2018-02-21T07:52:17.778Z,12.34
2018-02-21T07:53:17.725Z,12.54
2018-02-21T07:54:17.693Z,12.43
2018-02-21T07:55:17.635Z,12.43
2018-02-21T07:56:17.574Z,12.63
2018-02-21T07:57:17.517Z,12.14
2018-02-21T07:58:17.466Z,12.24
2018-02-21T07:59:17.414Z,12.24
2018-02-21T08:00:17.363Z,12.04
2018-02-21T08:01:17.312Z,12.04
2018-02-21T08:02:17.261Z,12.04
2018-02-21T08:03:17.208Z,12.24
2018-02-21T08:04:17.155Z,12.24
2018-02-21T08:05:17.100Z,12.14
2018-02-21T08:06:17.052Z,12.14
2018-02-21T08:07:17.001Z,12.14
2018-02-21T08:08:16.954Z,12.24
2018-02-21T08:09:16.897Z,12.05
2018-02-21T08:10:16.847Z,11.76
2018-02-21T08:11:16.801Z,11.76
2018-02-21T08:12:16.741Z,11.85
2018-02-21T08:13:16.692Z,12.05
2018-02-21T08:14:16.640Z,12.24
2018-02-21T08:15:16.589Z,12.34
2018-02-21T08:16:16.538Z,12.15
2018-02-21T08:17:16.485Z,12.15
2018-02-21T08:18:16.446Z,12.24
2018-02-21T08:19:16.378Z,12.05
2018-02-21T08:20:16.334Z,12.05
2018-02-21T08:21:16.281Z,12.05
2018-02-21T08:22:16.228Z,12.15
2018-02-21T08:23:16.180Z,12.24
2018-02-21T08:24:16.127Z,11.85
2018-02-21T08:25:16.080Z,12.15
2018-02-21T08:26:16.019Z,11.76
2018-02-21T08:27:15.972Z,12.05
2018-02-21T08:28:15.952Z,12.15
2018-02-21T08:29:15.869Z,12.15
2018-02-21T08:30:15.819Z,12.05
2018-02-21T08:31:15.765Z,12.05
2018-02-21T08:32:15.714Z,12.05
2018-02-21T08:33:15.665Z,12.15
2018-02-21T08:34:15.613Z,12.05
2018-02-21T08:35:15.560Z,11.76
2018-02-21T08:36:15.510Z,12.05
2018-02-21T08:37:15.458Z,12.15
2018-02-21T08:38:15.407Z,12.15
2018-02-21T08:39:15.359Z,12.25
2018-02-21T08:40:15.300Z,11.96
2018-02-21T08:41:15.252Z,12.15
2018-02-21T08:42:15.203Z,11.76
2018-02-21T08:43:15.160Z,11.86
2018-02-21T08:44:15.098Z,11.76
2018-02-21T08:45:15.049Z,12.15
2018-02-21T08:46:14.998Z,12.15
2018-02-21T08:47:14.946Z,11.86
2018-02-21T08:48:14.895Z,11.96
2018-02-21T08:49:14.847Z,11.86
2018-02-21T08:50:14.811Z,11.86
2018-02-21T08:51:14.740Z,11.76
2018-02-21T08:52:14.690Z,11.96
2018-02-21T08:53:14.640Z,12.15
2018-02-21T08:54:14.595Z,12.15
2018-02-21T08:55:14.539Z,11.86
2018-02-21T08:56:14.486Z,12.05
2018-02-21T08:57:14.433Z,11.86
2018-02-21T08:58:14.386Z,11.47
2018-02-21T08:59:14.331Z,11.47
2018-02-21T09:00:14.280Z,11.47
2018-02-21T09:01:14.229Z,11.67
2018-02-21T09:02:14.190Z,11.38
2018-02-21T09:03:14.127Z,11.77
2018-02-21T09:04:14.075Z,11.57
2018-02-21T09:05:14.024Z,11.47
2018-02-21T09:06:13.973Z,11.37
2018-02-21T09:07:13.926Z,11.66
2018-02-21T09:08:13.870Z,11.86
2018-02-21T09:09:13.822Z,11.47
2018-02-21T09:10:13.776Z,11.57
2018-02-21T09:11:13.717Z,11.57
2018-02-21T09:12:13.667Z,11.67
2018-02-21T09:13:13.615Z,11.38
2018-02-21T09:14:13.564Z,11.57
2018-02-21T09:15:13.512Z,11.67
2018-02-21T09:16:13.463Z,11.66
2018-02-21T09:17:13.414Z,11.57
2018-02-21T09:18:13.360Z,11.47
2018-02-21T09:19:13.306Z,11.47
2018-02-21T09:20:13.259Z,11.67
2018-02-21T09:21:13.206Z,11.47
2018-02-21T09:22:13.155Z,11.86
2018-02-21T09:23:13.103Z,11.76
2018-02-21T09:24:13.052Z,12.05
2018-02-21T09:25:13.000Z,11.96
2018-02-21T09:26:12.947Z,11.96
2018-02-21T09:27:12.897Z,11.96
2018-02-21T09:28:12.848Z,11.67
2018-02-21T09:29:12.806Z,11.47
2018-02-21T09:30:12.742Z,11.67
2018-02-21T09:31:12.704Z,11.67
2018-02-21T09:32:12.641Z,11.67
2018-02-21T09:33:12.589Z,11.28
2018-02-21T09:34:12.539Z,11.47
2018-02-21T09:35:12.490Z,11.38
2018-02-21T09:36:12.440Z,11.47
2018-02-21T09:37:12.383Z,11.77
2018-02-21T09:38:12.335Z,11.47
2018-02-21T09:39:12.295Z,11.67
2018-02-21T09:40:12.227Z,11.47
2018-02-21T09:41:12.180Z,11.28
2018-02-21T09:42:12.131Z,11.77
2018-02-21T09:43:12.102Z,11.57
2018-02-21T09:44:12.029Z,11.77
2018-02-21T09:45:11.977Z,11.57
2018-02-21T09:46:11.947Z,11.67
2018-02-21T09:47:11.882Z,11.47
2018-02-21T09:48:11.823Z,11.47
2018-02-21T09:49:11.772Z,11.87
2018-02-21T09:50:11.727Z,11.96
2018-02-21T09:51:11.672Z,11.57
2018-02-21T09:52:11.620Z,11.67
2018-02-21T09:53:11.580Z,11.57
2018-02-21T09:54:11.518Z,11.47
2018-02-21T09:55:11.467Z,11.57
2018-02-21T09:56:11.411Z,11.96
2018-02-21T09:57:11.363Z,11.77
2018-02-21T09:58:11.319Z,11.96
2018-02-21T09:59:11.266Z,11.96
2018-02-21T10:00:11.208Z,12.05
2018-02-21T10:01:11.159Z,11.57
2018-02-21T10:02:11.107Z,11.96
2018-02-21T10:03:11.056Z,11.86
2018-02-21T10:04:11.005Z,11.87
2018-02-21T10:05:10.954Z,11.47
2018-02-21T10:06:10.903Z,11.77
2018-02-21T10:07:10.852Z,11.96
2018-02-21T10:08:10.800Z,11.57
2018-02-21T10:09:10.762Z,11.57
2018-02-21T10:10:10.698Z,11.28
2018-02-21T10:11:10.647Z,11.47
2018-02-21T10:12:10.600Z,11.57
2018-02-21T10:13:10.553Z,11.57
2018-02-21T10:14:10.493Z,11.57
2018-02-21T10:15:10.464Z,11.47
2018-02-21T10:16:10.397Z,11.57
2018-02-21T10:17:10.346Z,11.87
2018-02-21T10:18:10.288Z,11.76
2018-02-21T10:19:10.241Z,11.77
2018-02-21T10:20:10.196Z,11.77
2018-02-21T10:21:10.135Z,11.57
2018-02-21T10:22:10.085Z,11.57
2018-02-21T10:23:10.037Z,11.67
2018-02-21T10:24:09.987Z,11.57
2018-02-21T10:25:09.932Z,11.38
2018-02-21T10:26:09.876Z,11.67
2018-02-21T10:27:09.828Z,11.67
2018-02-21T10:28:09.778Z,11.38
2018-02-21T10:29:09.727Z,11.67
2018-02-21T10:30:09.674Z,11.57
2018-02-21T10:31:09.625Z,11.28
2018-02-21T10:32:09.572Z,11.28
2018-02-21T10:33:09.517Z,11.38
2018-02-21T10:34:09.473Z,11.18
2018-02-21T10:35:09.421Z,11.28
2018-02-21T10:36:09.368Z,11.28
2018-02-21T10:37:09.316Z,11.67
2018-02-21T10:38:09.266Z,11.57
2018-02-21T10:39:09.220Z,11.77
2018-02-21T10:40:09.164Z,11.96
2018-02-21T10:41:09.115Z,12.05
2018-02-21T10:42:09.061Z,11.96
2018-02-21T10:43:09.020Z,12.34
2018-02-21T10:44:08.961Z,12.05
2018-02-21T10:45:08.911Z,12.44
2018-02-21T10:46:08.868Z,12.54
2018-02-21T10:47:08.815Z,12.63
2018-02-21T10:48:08.755Z,12.63
2018-02-21T10:49:08.702Z,13.42
2018-02-21T10:50:08.655Z,13.21
2018-02-21T10:51:08.606Z,13.31
2018-02-21T10:52:08.549Z,13.51
2018-02-21T10:53:08.508Z,13.12
2018-02-21T10:54:08.453Z,12.92
2018-02-21T10:55:08.396Z,13.60
2018-02-21T10:56:08.342Z,13.40
2018-02-21T10:57:08.297Z,13.89
2018-02-21T10:58:08.241Z,13.89
2018-02-21T10:59:08.195Z,14.08
2018-02-21T11:00:08.144Z,13.69
2018-02-21T11:01:08.090Z,14.07
2018-02-21T11:02:08.035Z,14.66
2018-02-21T11:03:07.981Z,14.26
2018-02-21T11:04:07.933Z,14.07
2018-02-21T11:05:07.880Z,14.75
2018-02-21T11:06:07.827Z,14.56
2018-02-21T11:07:07.797Z,14.84
2018-02-21T11:08:07.727Z,14.75
2018-02-21T11:09:07.673Z,15.23
2018-02-21T11:10:07.618Z,15.04
2018-02-21T11:11:07.597Z,15.14
2018-02-21T11:12:07.515Z,15.22
2018-02-21T11:13:07.466Z,15.52
2018-02-21T11:14:07.416Z,15.52
2018-02-21T11:15:07.366Z,15.51
2018-02-21T11:16:07.306Z,15.80
2018-02-21T11:17:07.254Z,15.61
2018-02-21T11:18:07.201Z,16.09
2018-02-21T11:19:07.151Z,15.70
2018-02-21T11:20:07.097Z,16.28
2018-02-21T11:21:07.044Z,16.76
2018-02-21T11:22:06.993Z,16.56
2018-02-21T11:23:06.940Z,16.37
2018-02-21T11:24:06.887Z,16.76
2018-02-21T11:25:06.832Z,17.05
2018-02-21T11:26:06.779Z,17.24
2018-02-21T11:27:06.733Z,17.14
2018-02-21T11:28:06.675Z,17.72
2018-02-21T11:29:06.622Z,17.33
2018-02-21T11:30:06.574Z,17.43
2018-02-21T11:31:06.515Z,17.82
2018-02-21T11:32:06.466Z,17.62
2018-02-21T11:33:06.410Z,18.01
2018-02-21T11:34:06.359Z,17.71
2018-02-21T11:35:06.305Z,18.39
2018-02-21T11:36:06.250Z,18.39
2018-02-21T11:37:06.197Z,18.48
2018-02-21T11:38:06.144Z,18.77
2018-02-21T11:39:06.092Z,18.38
2018-02-21T11:40:06.031Z,19.06
2018-02-21T11:41:05.985Z,19.16
2018-02-21T11:42:05.930Z,19.25
2018-02-21T11:43:05.881Z,19.06
2018-02-21T11:44:05.822Z,19.35
2018-02-21T11:45:05.768Z,19.44
2018-02-21T11:46:05.717Z,19.44
2018-02-21T11:47:05.667Z,19.82
2018-02-21T11:48:05.607Z,19.92
2018-02-21T11:49:05.557Z,19.44
2018-02-21T11:50:05.500Z,19.45
2018-02-21T11:51:05.448Z,18.78
2018-02-21T11:52:05.392Z,18.50
2018-02-21T11:53:05.340Z,17.82
2018-02-21T11:54:05.287Z,17.15
2018-02-21T11:55:05.238Z,16.96
2018-02-21T11:56:05.181Z,16.67
2018-02-21T11:57:05.126Z,16.68
2018-02-21T11:58:05.077Z,16.20
2018-02-21T11:59:05.019Z,15.91
2018-02-21T12:00:04.972Z,16.11
2018-02-21T12:01:04.915Z,15.53
2018-02-21T12:02:04.861Z,15.82
2018-02-21T12:03:04.806Z,15.82
2018-02-21T12:04:04.749Z,15.14
2018-02-21T12:05:04.698Z,15.33
2018-02-21T12:06:04.646Z,15.33
2018-02-21T12:07:04.592Z,15.72
2018-02-21T12:08:04.536Z,15.82
2018-02-21T12:09:04.484Z,15.72
2018-02-21T12:10:04.436Z,15.33
2018-02-21T12:11:04.380Z,15.82
2018-02-21T12:12:04.326Z,15.72
2018-02-21T12:13:04.359Z,16.02
2018-02-21T12:14:04.224Z,15.92
2018-02-21T12:15:04.171Z,16.49
2018-02-21T12:16:04.166Z,16.30
2018-02-21T12:17:04.061Z,16.00
2018-02-21T12:18:04.014Z,16.59
2018-02-21T12:19:03.956Z,16.59
2018-02-21T12:20:03.902Z,16.58
2018-02-21T12:21:03.855Z,16.88
2018-02-21T12:22:03.797Z,16.78
2018-02-21T12:23:03.744Z,17.07
2018-02-21T12:24:03.697Z,16.97
2018-02-21T12:25:03.639Z,17.65
2018-02-21T12:26:03.586Z,17.35
2018-02-21T12:27:03.533Z,17.45
2018-02-21T12:28:03.479Z,17.45
2018-02-21T12:29:03.428Z,17.74
2018-02-21T12:30:03.373Z,17.64
2018-02-21T12:31:03.321Z,17.44
2018-02-21T12:32:03.266Z,17.83
2018-02-21T12:33:03.216Z,17.74
2018-02-21T12:34:03.161Z,17.64
2018-02-21T12:35:03.112Z,18.71
2018-02-21T12:36:03.055Z,18.31
2018-02-21T12:37:02.997Z,18.51
2018-02-21T12:38:02.948Z,18.70
2018-02-21T12:39:02.898Z,18.40
2018-02-21T12:40:02.843Z,18.98
2018-02-21T12:41:02.789Z,19.27
2018-02-21T12:42:02.736Z,19.27
2018-02-21T12:43:02.684Z,19.65
2018-02-21T12:44:02.628Z,19.56
2018-02-21T12:45:02.576Z,19.56
2018-02-21T12:46:02.530Z,19.94
2018-02-21T12:47:02.470Z,20.42
2018-02-21T12:48:02.414Z,20.04
2018-02-21T12:49:02.360Z,20.23
2018-02-21T12:50:02.311Z,20.42
2018-02-21T12:51:02.260Z,20.51
2018-02-21T12:52:02.199Z,20.71